30 de junio de 2022

Hora Código Tiempo Temp. Visibilidad Cielo nuboso Viento METAR/SPECI
1:00 p. m.
V
90 °F 6¼ mi+ - 220° 220° 10 kt METAR AYPY 300300Z 22010KT 9999 FUHZ FEW025 SCT030 32/24 Q1007
12:00 p. m.
V
90 °F 6¼ mi+ - 180° 180° 10 kt METAR AYPY 300200Z 18010KT 9999 FUHZ SCT030 32/23 Q1007
11:00 a. m.
V
90 °F 6¼ mi+ - 200° 200° 5 kt METAR AYPY 300100Z 20005KT 9999 FUHZ FEW035 32/23 Q1008
10:00 a. m.
V
88 °F 6¼ mi+ - Var Var 3 kt METAR AYPY 300000Z VRB03KT 9999 HZ FEW030 31/23 Q1008
9:00 a. m.
V
82 °F 6¼ mi+ - Var Var 3 kt METAR AYPY 292300Z VRB03KT 9999 FUHZ SKC 28/23 Q1009
8:00 a. m.
V
77 °F 6¼ mi+ - Var Var 3 kt METAR AYPY 292200Z VRB03KT 9999 FUHZ SKC 25/23 Q1008
7:00 a. m.
V
73 °F 6¼ mi+ - 330° 330° 3 kt METAR AYPY 292100Z 33003KT 9999 FG FEW030 23/23 Q1008
6:00 a. m.
V
73 °F 6¼ mi+ - Var Var 4 kt METAR AYPY 292000Z VRB04KT 9999 FG SCT050 23/23 Q1008 RMK
4:30 a. m.
L
73 °F 0 mi 200 ft Var Var 4 kt METAR AYPY 291830Z VRB04KT 300M FG BKN002 23/23 Q1007
3:00 a. m.
V
73 °F 6¼ mi+ - Var Var 4 kt METAR AYPY 291700Z VRB04KT 9999 SCT80 23/23 Q1007 RMK
2:00 a. m.
V
75 °F 6¼ mi+ - Var Var 4 kt METAR AYPY 291600Z VRB04KT 9999 SCT100 24/23 Q1008
1:00 a. m.
V
75 °F 6¼ mi+ - Var Var 3 kt METAR AYPY 291500Z VRB03KT 9999 SCT080 24/23 Q1008
12:00 a. m.
V
75 °F 6¼ mi+ - Var Var 3 kt METAR AYPY 291400Z VRB03KT 9999 SCT080 24/23 Q1009=

29 de junio de 2022

Hora Código Tiempo Temp. Visibilidad Cielo nuboso Viento METAR/SPECI
11:00 p. m.
V
75 °F 6¼ mi+ - Var Var 3 kt METAR AYPY 291300Z VRB03KT 9999 SCT080 24/24 Q1009
10:00 p. m.
V
79 °F 6¼ mi+ - Var Var 3 kt METAR AYPY 291200Z VRB03KT 9999 SCT080 26/25 Q1009
9:00 p. m.
V
79 °F 6¼ mi+ - Var Var 3 kt METAR AYPY 291100Z VRB03KT 9999 SCT080 26/25 Q1009
8:00 p. m.
V
79 °F 6¼ mi+ - 130° 130° 4 kt METAR AYPY 291000Z 13004KT 9999 SCT080 26/25 Q1008
7:00 p. m.
V
81 °F 6¼ mi+ - 150° 150° 6 kt METAR AYPY 290900Z 15006KT 9999 SCT100 27/25 Q1008
6:00 p. m.
V
82 °F 6¼ mi+ - 150° 150° 10 kt METAR AYPY 290800Z 15010KT 9999 HZ SCT040 28/25 Q1007
5:00 p. m.
V
86 °F 6¼ mi+ - 200° 200° 10 kt METAR AYPY 290700Z 20010KT 9999 HZ SCT035 30/24 Q1006
3:00 p. m.
V
84 °F 6¼ mi+ - 180° 180° 10 - 15 kt METAR AYPY 290500Z 18010G15KT 9999 FUHZ FEW030 SCT040 29/24 Q1006
2:00 p. m.
V
88 °F 6¼ mi+ - 220° 220° 10 kt METAR AYPY 290400Z 22010KT 9999 FUHZ SCT025 31/24 Q1006 RMK/CB TO THE N AND E
1:00 p. m.
V
86 °F 6¼ mi+ - 240° 240° 10 kt METAR AYPY 290300Z 24010KT 9999 FUHZ SCT025 30/24 Q1007 RMK/CB TO THE N AND E
12:00 p. m.
V
88 °F 6¼ mi+ - 220° 220° 10 kt METAR AYPY 290200Z 22010KT 9999 FUHZ SCT030 31/24 Q1007
11:00 a. m.
V
88 °F 6¼ mi+ - 210° 210° 10 kt METAR AYPY 290100Z 21010KT 9999 FUHZ SCT025 31/24 Q1007
10:00 a. m.
V
88 °F 6¼ mi+ - Var Var 4 kt METAR AYPY 290000Z VRB04KT 9999 FUHZ FEW050 31/23 Q1008
9:00 a. m.
V
82 °F 6¼ mi+ - Var Var 3 kt METAR AYPY 282300Z VRB03KT 9999 FUHZ FEW040 28/23 Q1008
8:00 a. m.
V
75 °F 6¼ mi+ - Var Var 3 kt METAR AYPY 282200Z VRB03KT 9999 FUHZ FEW009 FEW040 24/23 Q1007
6:00 a. m.
L
73 °F 0 mi 3.000 ft Var Var 4 kt METAR AYPY 282000Z VRB04KT 3000M FG BKN030 23/23 Q1007
5:00 a. m.
L
73 °F 0 mi 3.500 ft Var Var 3 kt METAR AYPY 281900Z VRB03KT 5000M FG BKN035 23/23 Q1006
4:30 a. m.
L
73 °F 0 mi 2.000 ft Var Var 4 kt METAR AYPY 281830Z VRB04KT 3000M FG BKN020 23/23 Q1006
4:00 a. m.
V
73 °F 6¼ mi+ - Var Var 3 kt METAR AYPY 281800Z VRB03KT 9999 SCT100 23/22 Q1006 RMK
3:00 a. m.
V
73 °F 6¼ mi+ - Var Var 3 kt METAR AYPY 281700Z VRB03KT 9999 SCT100 23/23 Q1006
2:00 a. m.
V
73 °F 6¼ mi+ - Var Var 3 kt METAR AYPY 281600Z VRB03KT 9999 SCT100 23/22 Q1007
1:00 a. m.
V
73 °F 6¼ mi+ - Var Var 3 kt METAR AYPY 281500Z VRB03KT 9999 SCT080 23/23 Q1007
12:00 a. m.
V
77 °F 6¼ mi+ - Var Var 3 kt METAR AYPY 281400Z VRB03KT 9999 SCT050 25/24 Q1008

28 de junio de 2022

Hora Código Tiempo Temp. Visibilidad Cielo nuboso Viento METAR/SPECI
11:00 p. m.
V
77 °F 6¼ mi+ - Var Var 3 kt METAR AYPY 281300Z VRB03KT 9999 SCT050 25/23 Q1008
10:00 p. m.
V
77 °F 6¼ mi+ - Var Var 3 kt METAR AYPY 281200Z VRB03KT 9999 SCT050 25/23 Q1008=
9:00 p. m.
V
79 °F 6¼ mi+ - Var Var 3 kt METAR AYPY 281100Z VRB03KT 9999 SCT050 26/23 Q1008
7:00 p. m.
V
81 °F 6¼ mi+ - 150° 150° 10 kt METAR AYPY 280900Z 15010KT 9999 FEW025 SCT040 27/23 Q1007
6:00 p. m.
V
82 °F 6¼ mi+ - 160° 160° 15 kt METAR AYPY 280800Z 16015KT 9999 SCT030 SCT040 28/25 Q1007 RMK/CB N AND NE
5:00 p. m.
V
86 °F 6¼ mi+ - 160° 160° 15 kt METAR AYPY 280700Z 16015KT 9999 FUHZ FEW030 SCT040 30/24 Q1006 RMK
4:00 p. m.
V
88 °F 6¼ mi+ - 140° 140° 15 kt METAR AYPY 280600Z 14015KT 9999 FUHZ SCT030 SCT040 31/24 Q1006 RMK
3:00 p. m.
V
88 °F 6¼ mi+ - 200° 200° 10 kt METAR AYPY 280500Z 20010KT 9999 FUHZ SCT030 SCT040 31/24 Q1006 RMK
2:00 p. m.
V
88 °F 6¼ mi+ - 210° 210° 12 kt METAR AYPY 280400Z 21012KT 9999 FUHZ SCT030 SCT040 31/24 Q1006 RMK/CB FM NW TO E
1:00 p. m.
V
88 °F 6¼ mi+ - 210° 210° 12 kt METAR AYPY 280300Z 21012KT 9999 FUHZ SCT025 SCT035 31/24 Q1007 RMK
12:00 p. m.
V
88 °F 6¼ mi+ - 210° 210° 12 kt METAR AYPY 280200Z 21012KT 9999 FUHZ SCT025 SCT035 31/25 Q1008 RMK
11:00 a. m.
V
88 °F 6¼ mi+ 3.000 ft 220° 220° 5 kt METAR AYPY 280100Z 22005KT 9999 FUHZ FEW020 BKN030 31/25 Q1009
10:00 a. m.
V
86 °F 6¼ mi+ 3.000 ft Var Var 3 kt METAR AYPY 280000Z VRB03KT 9999 FUHZ FEW015 BKN030 30/25 Q1009
9:00 a. m.
V
84 °F 6¼ mi+ - Var Var 3 kt METAR AYPY 272300Z VRB03KT 9999 FUHZ FEW015 SCT030 29/25 Q1009
8:00 a. m.
V
81 °F 6¼ mi+ 4.000 ft Var Var 3 kt METAR AYPY 272200Z VRB03KT 9999 FUHZ SCT010 BKN040 27/25 Q1009=
Datos más antiguos

Descarga nuestra aplicación

Acceso fácil a todo el tiempo de la aviación en tu teléfono móvil y tableta.
Con muchas funciones no disponibles en el sitio web, como la compatibilidad sin conexión y una lista personal de aeropuertos.

Nosotros y terceros seguimos tu comportamiento en Internet en nuestro sitio web con cookies. Si continúas, asumimos que estás de acuerdo con nuestra política de cookies. Más información